createdAt,value
2023-02-06T00:00:06.751Z,6.93
2023-02-06T00:02:35.023Z,7.63
2023-02-06T00:05:03.004Z,7.53
2023-02-06T00:07:30.997Z,7.50
2023-02-06T00:10:00.232Z,8.83
2023-02-06T00:12:29.007Z,7.70
2023-02-06T00:14:57.026Z,7.50
2023-02-06T00:17:25.078Z,7.90
2023-02-06T00:19:53.042Z,7.60
2023-02-06T00:22:20.859Z,7.37
2023-02-06T00:24:48.642Z,6.73
2023-02-06T00:27:17.782Z,6.43
2023-02-06T00:29:45.591Z,6.47
2023-02-06T00:32:13.741Z,6.90
2023-02-06T00:34:41.737Z,7.10
2023-02-06T00:37:09.709Z,7.50
2023-02-06T00:39:37.662Z,6.67
2023-02-06T00:42:05.426Z,6.60
2023-02-06T00:44:35.066Z,5.70
2023-02-06T00:47:02.813Z,5.97
2023-02-06T00:49:30.594Z,6.47
2023-02-06T00:51:58.319Z,6.23
2023-02-06T00:54:26.492Z,6.23
2023-02-06T00:56:54.253Z,6.00
2023-02-06T00:59:22.064Z,6.30
2023-02-06T01:01:51.543Z,5.63
2023-02-06T01:04:19.565Z,5.40
2023-02-06T01:06:47.587Z,5.20
2023-02-06T01:09:15.573Z,5.77
2023-02-06T01:11:43.337Z,5.27
2023-02-06T01:14:11.072Z,5.13
2023-02-06T01:16:38.822Z,5.20
2023-02-06T01:19:07.912Z,5.27
2023-02-06T01:21:35.681Z,4.87
2023-02-06T01:24:03.425Z,5.40
2023-02-06T01:26:31.636Z,5.10
2023-02-06T01:28:59.367Z,5.00
2023-02-06T01:31:28.255Z,5.07
2023-02-06T01:33:56.371Z,4.70
2023-02-06T01:36:25.794Z,4.47
2023-02-06T01:38:53.837Z,4.47
2023-02-06T01:41:23.398Z,5.20
2023-02-06T01:44:23.719Z,5.27
2023-02-06T01:46:53.338Z,5.87
2023-02-06T01:49:22.235Z,4.70
2023-02-06T01:51:51.938Z,4.73
2023-02-06T01:54:19.698Z,4.60
2023-02-06T01:56:51.853Z,5.40
2023-02-06T01:59:19.589Z,5.60
2023-02-06T02:01:47.352Z,5.90
2023-02-06T02:04:17.706Z,5.33
2023-02-06T02:06:45.590Z,5.00
2023-02-06T02:09:14.684Z,5.50
2023-02-06T02:11:43.193Z,6.10
2023-02-06T02:14:12.761Z,6.13
2023-02-06T02:16:44.221Z,6.00
2023-02-06T02:19:31.882Z,5.43
2023-02-06T02:22:32.652Z,5.63
2023-02-06T02:25:14.944Z,5.77
2023-02-06T02:28:18.159Z,6.97
2023-02-06T02:30:52.455Z,5.27
2023-02-06T02:33:49.617Z,5.20
2023-02-06T02:36:20.032Z,6.57
2023-02-06T02:38:54.620Z,5.77
2023-02-06T02:41:26.418Z,5.33
2023-02-06T02:43:56.801Z,5.83
2023-02-06T02:46:25.507Z,6.50
2023-02-06T02:48:54.085Z,6.63
2023-02-06T02:51:23.105Z,7.73
2023-02-06T02:53:50.803Z,7.70
2023-02-06T02:56:20.651Z,6.20
2023-02-06T02:58:51.420Z,5.97
2023-02-06T03:01:21.156Z,6.00
2023-02-06T03:03:49.316Z,6.60
2023-02-06T03:06:49.799Z,5.80
2023-02-06T03:09:22.888Z,7.37
2023-02-06T03:11:53.503Z,5.83
2023-02-06T03:14:24.755Z,5.43
2023-02-06T03:16:55.397Z,7.23
2023-02-06T03:19:24.817Z,6.30
2023-02-06T03:21:53.923Z,7.03
2023-02-06T03:24:23.960Z,5.70
2023-02-06T03:26:53.151Z,19.17
2023-02-06T03:29:20.815Z,85.60
2023-02-06T03:31:50.480Z,53.10
2023-02-06T03:34:19.516Z,38.10
2023-02-06T03:36:47.960Z,33.23
2023-02-06T03:39:17.347Z,25.67
2023-02-06T03:41:45.308Z,23.63
2023-02-06T03:44:16.091Z,22.30
2023-02-06T03:46:44.538Z,16.30
2023-02-06T03:49:14.030Z,15.00
2023-02-06T03:51:43.344Z,13.43
2023-02-06T03:54:11.330Z,12.03
2023-02-06T03:56:41.546Z,10.13
2023-02-06T03:59:09.949Z,9.87
2023-02-06T04:01:40.999Z,8.93
2023-02-06T04:04:09.323Z,7.33
2023-02-06T04:06:37.638Z,6.90
2023-02-06T04:09:06.017Z,6.60
2023-02-06T04:11:33.692Z,5.23
2023-02-06T04:14:02.874Z,5.90
2023-02-06T04:16:30.879Z,5.40
2023-02-06T04:18:59.093Z,4.53
2023-02-06T04:21:26.815Z,4.47
2023-02-06T04:23:54.723Z,5.37
2023-02-06T04:26:22.604Z,4.30
2023-02-06T04:28:50.622Z,3.83
2023-02-06T04:31:19.735Z,3.93
2023-02-06T04:33:48.201Z,5.10
2023-02-06T04:36:16.069Z,4.23
2023-02-06T04:38:44.127Z,3.53
2023-02-06T04:41:12.324Z,4.80
2023-02-06T04:43:40.057Z,4.10
2023-02-06T04:46:08.229Z,4.40
2023-02-06T04:48:37.718Z,4.47
2023-02-06T04:51:06.314Z,4.20
2023-02-06T04:53:34.044Z,4.27
2023-02-06T04:56:05.419Z,4.27
2023-02-06T04:58:33.360Z,4.10
2023-02-06T05:01:01.675Z,4.63
2023-02-06T05:03:29.642Z,4.77
2023-02-06T05:06:00.451Z,3.90
2023-02-06T05:08:28.368Z,4.30
2023-02-06T05:10:56.253Z,5.70
2023-02-06T05:13:24.259Z,4.67
2023-02-06T05:15:52.094Z,5.40
2023-02-06T05:18:20.110Z,5.60
2023-02-06T05:20:48.013Z,6.00
2023-02-06T05:23:17.358Z,5.73
2023-02-06T05:25:45.083Z,5.70
2023-02-06T05:28:13.313Z,6.20
2023-02-06T05:30:41.491Z,5.50
2023-02-06T05:33:09.439Z,6.70
2023-02-06T05:35:39.004Z,5.80
2023-02-06T05:38:06.760Z,5.33
2023-02-06T05:40:35.769Z,4.50
2023-02-06T05:43:03.557Z,4.67
2023-02-06T05:45:31.251Z,4.87
2023-02-06T05:47:58.962Z,3.70
2023-02-06T05:50:26.997Z,3.93
2023-02-06T05:52:54.675Z,4.00
2023-02-06T05:55:22.455Z,4.60
2023-02-06T05:57:51.788Z,4.67
2023-02-06T06:00:20.134Z,4.20
2023-02-06T06:02:48.070Z,4.53
2023-02-06T06:05:19.199Z,4.60
2023-02-06T06:07:47.102Z,4.70
2023-02-06T06:10:14.954Z,4.33
2023-02-06T06:12:42.684Z,4.10
2023-02-06T06:15:11.833Z,4.10
2023-02-06T06:17:39.565Z,8.73
2023-02-06T06:20:07.740Z,5.80
2023-02-06T06:22:35.775Z,5.70
2023-02-06T06:25:05.004Z,5.63
2023-02-06T06:27:32.705Z,5.00
2023-02-06T06:30:00.381Z,5.20
2023-02-06T06:32:29.793Z,5.70
2023-02-06T06:34:57.448Z,4.90
2023-02-06T06:37:25.175Z,10.13
2023-02-06T06:39:52.844Z,11.97
2023-02-06T06:42:20.544Z,10.47
2023-02-06T06:44:48.244Z,8.40
2023-02-06T06:47:15.908Z,8.20
2023-02-06T06:49:45.333Z,9.17
2023-02-06T06:52:24.063Z,7.20
2023-02-06T06:54:53.024Z,6.70
2023-02-06T06:57:20.782Z,6.70
2023-02-06T06:59:48.471Z,6.40
2023-02-06T07:02:16.170Z,5.93
2023-02-06T07:04:45.687Z,22.20
2023-02-06T07:07:13.555Z,14.07
2023-02-06T07:09:41.389Z,13.20
2023-02-06T07:12:09.312Z,10.50
2023-02-06T07:14:36.994Z,8.90
2023-02-06T07:17:04.657Z,8.77
2023-02-06T07:19:32.365Z,7.90
2023-02-06T07:22:01.369Z,6.83
2023-02-06T07:24:29.263Z,6.90
2023-02-06T07:26:58.186Z,7.20
2023-02-06T07:29:26.352Z,7.73
2023-02-06T07:31:54.920Z,7.23
2023-02-06T07:34:22.774Z,7.40
2023-02-06T07:36:50.825Z,6.30
2023-02-06T07:39:19.939Z,6.97
2023-02-06T07:41:50.199Z,5.30
2023-02-06T07:44:17.929Z,5.90
2023-02-06T07:46:45.715Z,5.47
2023-02-06T07:49:15.146Z,5.77
2023-02-06T07:51:43.205Z,6.13
2023-02-06T07:54:11.132Z,5.63
2023-02-06T07:56:40.366Z,4.83
2023-02-06T07:59:08.414Z,7.77
2023-02-06T08:01:36.325Z,6.80
2023-02-06T08:04:04.303Z,8.27
2023-02-06T08:06:32.250Z,6.20
2023-02-06T08:09:00.420Z,7.50
2023-02-06T08:11:30.355Z,6.63
2023-02-06T08:14:00.300Z,7.20
2023-02-06T08:16:28.125Z,6.13
2023-02-06T08:18:55.997Z,6.20
2023-02-06T08:21:25.458Z,6.70
2023-02-06T08:23:55.444Z,7.83
2023-02-06T08:26:23.299Z,8.20
2023-02-06T08:28:51.417Z,8.90
2023-02-06T08:31:25.848Z,9.87
2023-02-06T08:33:53.937Z,9.43
2023-02-06T08:36:22.181Z,9.70
2023-02-06T08:38:50.042Z,8.90
2023-02-06T08:41:19.268Z,8.70
2023-02-06T08:43:47.141Z,9.77
2023-02-06T08:46:14.893Z,9.03
2023-02-06T08:48:43.998Z,9.70
2023-02-06T08:51:11.828Z,9.17
2023-02-06T08:53:39.651Z,9.50
2023-02-06T08:56:08.622Z,11.00
2023-02-06T08:58:36.606Z,12.70
2023-02-06T09:01:07.684Z,12.23
2023-02-06T09:03:36.149Z,11.40
2023-02-06T09:06:10.270Z,12.10
2023-02-06T09:08:38.367Z,11.03
2023-02-06T09:11:07.338Z,11.43
2023-02-06T09:13:35.149Z,11.23
2023-02-06T09:16:02.916Z,10.60
2023-02-06T09:18:31.006Z,10.37
2023-02-06T09:21:11.518Z,9.87
2023-02-06T09:23:39.313Z,9.70
2023-02-06T09:26:07.287Z,9.63
2023-02-06T09:28:34.989Z,9.83
2023-02-06T09:31:02.854Z,10.30
2023-02-06T09:33:30.663Z,9.57
2023-02-06T09:36:05.369Z,9.63
2023-02-06T09:38:34.615Z,8.27
2023-02-06T09:41:03.409Z,9.13
2023-02-06T09:43:31.262Z,7.70
2023-02-06T09:46:00.655Z,8.03
2023-02-06T09:48:29.682Z,7.40
2023-02-06T09:51:00.407Z,8.27
2023-02-06T09:53:31.170Z,7.33
2023-02-06T09:56:03.175Z,8.37
2023-02-06T09:58:36.054Z,8.13
2023-02-06T10:01:07.121Z,8.20
2023-02-06T10:03:49.095Z,8.77
2023-02-06T10:06:19.808Z,8.10
2023-02-06T10:08:52.197Z,8.30
2023-02-06T10:11:23.941Z,7.90
2023-02-06T10:13:53.900Z,10.40
2023-02-06T10:16:32.014Z,9.30
2023-02-06T10:19:02.081Z,9.87
2023-02-06T10:21:32.264Z,10.20
2023-02-06T10:24:02.429Z,10.90
2023-02-06T10:26:31.814Z,10.70
2023-02-06T10:29:00.015Z,8.53
2023-02-06T10:31:35.729Z,8.40
2023-02-06T10:34:23.892Z,7.93
2023-02-06T10:36:59.386Z,8.00
2023-02-06T10:39:49.476Z,7.20
2023-02-06T10:42:22.933Z,8.43
2023-02-06T10:44:57.014Z,7.60
2023-02-06T10:47:32.230Z,6.97
2023-02-06T10:50:02.893Z,6.83
2023-02-06T10:52:31.891Z,6.23
2023-02-06T10:55:00.529Z,5.57
2023-02-06T10:57:29.597Z,5.70
2023-02-06T10:59:59.371Z,5.70
2023-02-06T11:02:28.888Z,4.57
2023-02-06T11:05:00.693Z,5.27
2023-02-06T11:07:31.743Z,4.70
2023-02-06T11:09:59.958Z,5.00
2023-02-06T11:12:32.626Z,4.67
2023-02-06T11:15:02.763Z,4.10
2023-02-06T11:17:30.448Z,4.30
2023-02-06T11:20:02.678Z,4.13
2023-02-06T11:22:34.912Z,5.00
2023-02-06T11:25:20.575Z,4.80
2023-02-06T11:27:51.304Z,4.60
2023-02-06T11:30:40.944Z,4.57
2023-02-06T11:33:09.682Z,4.30
2023-02-06T11:35:39.858Z,4.33
2023-02-06T11:38:15.522Z,4.33
2023-02-06T11:40:43.590Z,4.50
2023-02-06T11:43:17.929Z,4.27
2023-02-06T11:45:47.267Z,4.33
2023-02-06T11:48:35.689Z,4.40
2023-02-06T11:51:03.659Z,4.80
2023-02-06T11:53:31.733Z,4.37
2023-02-06T11:56:01.538Z,4.40
2023-02-06T11:58:30.767Z,5.00
2023-02-06T12:01:02.263Z,4.30
2023-02-06T12:03:32.702Z,4.10
2023-02-06T12:06:04.545Z,4.53
2023-02-06T12:08:39.932Z,4.30
2023-02-06T12:11:12.446Z,4.40
2023-02-06T12:13:44.058Z,4.57
2023-02-06T12:16:12.600Z,4.23
2023-02-06T12:18:42.277Z,4.53
2023-02-06T12:21:26.945Z,4.80
2023-02-06T12:23:56.686Z,5.33
2023-02-06T12:26:25.450Z,4.37
2023-02-06T12:28:57.650Z,4.20
2023-02-06T12:31:27.930Z,4.40
2023-02-06T12:33:56.935Z,4.07
2023-02-06T12:36:26.429Z,3.77
2023-02-06T12:38:56.040Z,4.40
2023-02-06T12:41:47.189Z,4.10
2023-02-06T12:44:22.738Z,4.33
2023-02-06T12:46:53.158Z,4.07
2023-02-06T12:49:24.624Z,4.70
2023-02-06T12:51:54.938Z,4.50
2023-02-06T12:54:24.318Z,4.00
2023-02-06T12:56:53.605Z,4.33
2023-02-06T12:59:55.638Z,4.30
2023-02-06T13:02:34.715Z,4.40
2023-02-06T13:05:06.292Z,3.60
2023-02-06T13:07:48.756Z,5.07
2023-02-06T13:10:18.937Z,4.30
2023-02-06T13:12:49.160Z,4.33
2023-02-06T13:15:23.827Z,4.10
2023-02-06T13:17:51.787Z,4.20
2023-02-06T13:20:20.773Z,3.77
2023-02-06T13:22:50.118Z,4.60
2023-02-06T13:25:51.777Z,3.80
2023-02-06T13:28:42.488Z,3.67
2023-02-06T13:31:24.424Z,4.40
2023-02-06T13:33:53.648Z,4.03
2023-02-06T13:36:26.855Z,4.23
2023-02-06T13:38:57.612Z,4.20
2023-02-06T13:41:30.268Z,3.60
2023-02-06T13:43:59.636Z,3.67
2023-02-06T13:46:45.938Z,3.93
2023-02-06T13:49:32.966Z,3.70
2023-02-06T13:52:01.615Z,4.07
2023-02-06T13:54:56.580Z,3.40
2023-02-06T13:57:32.465Z,4.30
2023-02-06T14:00:01.964Z,4.17
2023-02-06T14:02:37.333Z,4.23
2023-02-06T14:05:07.002Z,3.97
2023-02-06T14:07:50.852Z,4.10
2023-02-06T14:10:32.449Z,3.53
2023-02-06T14:13:05.119Z,3.70
2023-02-06T14:15:36.997Z,3.60
2023-02-06T14:18:16.952Z,3.53
2023-02-06T14:20:50.166Z,3.83
2023-02-06T14:23:25.500Z,3.90
2023-02-06T14:26:00.102Z,3.60
2023-02-06T14:28:31.489Z,4.13
2023-02-06T14:31:04.606Z,3.90
2023-02-06T14:33:53.055Z,3.47
2023-02-06T14:36:28.432Z,3.73
2023-02-06T14:39:23.256Z,3.63
2023-02-06T14:41:51.007Z,3.70
2023-02-06T14:44:20.567Z,3.43
2023-02-06T14:46:48.399Z,3.80
2023-02-06T14:49:20.107Z,4.20
2023-02-06T14:51:50.445Z,4.00
2023-02-06T14:54:29.966Z,3.50
2023-02-06T14:56:57.922Z,3.40
2023-02-06T14:59:25.938Z,4.60
2023-02-06T15:01:56.168Z,3.73
2023-02-06T15:04:27.089Z,4.00
2023-02-06T15:06:55.964Z,3.73
2023-02-06T15:09:26.408Z,3.40
2023-02-06T15:11:54.545Z,3.80
2023-02-06T15:14:24.082Z,4.10
2023-02-06T15:16:52.084Z,4.07
2023-02-06T15:19:21.448Z,3.63
2023-02-06T15:21:51.072Z,3.53
2023-02-06T15:24:38.848Z,3.93
2023-02-06T15:27:09.325Z,3.90
2023-02-06T15:29:37.147Z,4.50
2023-02-06T15:32:07.211Z,4.30
2023-02-06T15:34:35.372Z,4.80
2023-02-06T15:37:27.433Z,4.17
2023-02-06T15:39:55.260Z,3.70
2023-02-06T15:42:23.094Z,4.63
2023-02-06T15:44:51.095Z,4.20
2023-02-06T15:47:19.855Z,4.00
2023-02-06T15:49:48.771Z,4.40
2023-02-06T15:52:34.636Z,4.10
2023-02-06T15:55:02.538Z,3.50
2023-02-06T15:57:32.360Z,4.57
2023-02-06T16:00:00.106Z,3.97
2023-02-06T16:02:32.998Z,4.10
2023-02-06T16:05:00.951Z,4.33
2023-02-06T16:07:31.924Z,3.97
2023-02-06T16:10:03.865Z,4.40
2023-02-06T16:12:34.136Z,4.47
2023-02-06T16:15:03.224Z,4.70
2023-02-06T16:17:33.088Z,4.53
2023-02-06T16:20:02.692Z,4.30
2023-02-06T16:22:33.574Z,4.23
2023-02-06T16:25:15.960Z,4.30
2023-02-06T16:27:45.582Z,4.60
2023-02-06T16:30:22.985Z,4.10
2023-02-06T16:32:51.055Z,4.30
2023-02-06T16:35:19.278Z,4.80
2023-02-06T16:37:49.180Z,4.30
2023-02-06T16:40:17.283Z,4.40
2023-02-06T16:42:47.534Z,4.60
2023-02-06T16:45:18.492Z,4.60
2023-02-06T16:47:46.703Z,4.53
2023-02-06T16:50:14.610Z,4.87
2023-02-06T16:52:47.202Z,4.30
2023-02-06T16:55:20.933Z,5.00
2023-02-06T16:57:50.981Z,5.20
2023-02-06T17:00:20.332Z,4.90
2023-02-06T17:02:48.254Z,4.40
2023-02-06T17:05:16.275Z,4.20
2023-02-06T17:07:44.225Z,4.70
2023-02-06T17:10:13.302Z,4.77
2023-02-06T17:12:44.370Z,4.57
2023-02-06T17:15:12.989Z,5.00
2023-02-06T17:17:41.052Z,4.47
2023-02-06T17:20:14.256Z,5.20
2023-02-06T17:22:41.933Z,4.47
2023-02-06T17:25:10.021Z,4.40
2023-02-06T17:27:38.294Z,4.43
2023-02-06T17:30:08.564Z,4.90
2023-02-06T17:32:36.527Z,4.53
2023-02-06T17:35:06.248Z,5.03
2023-02-06T17:37:34.255Z,4.77
2023-02-06T17:40:02.229Z,5.10
2023-02-06T17:42:32.322Z,5.70
2023-02-06T17:45:00.311Z,4.83
2023-02-06T17:47:29.662Z,5.20
2023-02-06T17:49:57.415Z,5.67
2023-02-06T17:52:25.133Z,5.30
2023-02-06T17:54:53.053Z,5.40
2023-02-06T17:57:20.751Z,5.03
2023-02-06T17:59:48.432Z,5.13
2023-02-06T18:02:16.480Z,4.40
2023-02-06T18:04:48.607Z,5.17
2023-02-06T18:07:16.343Z,5.13
2023-02-06T18:09:44.253Z,5.60
2023-02-06T18:12:12.262Z,5.57
2023-02-06T18:14:42.697Z,5.33
2023-02-06T18:17:10.620Z,5.13
2023-02-06T18:19:42.186Z,5.50
2023-02-06T18:22:12.980Z,5.60
2023-02-06T18:24:40.670Z,5.20
2023-02-06T18:27:08.572Z,5.07
2023-02-06T18:29:48.942Z,4.73
2023-02-06T18:32:18.010Z,6.27
2023-02-06T18:34:45.730Z,5.30
2023-02-06T18:37:14.822Z,5.60
2023-02-06T18:39:42.990Z,5.43
2023-02-06T18:42:28.855Z,4.70
2023-02-06T18:44:56.890Z,5.10
2023-02-06T18:47:24.804Z,5.60
2023-02-06T18:49:52.762Z,5.53
2023-02-06T18:52:22.196Z,5.47
2023-02-06T18:54:50.365Z,5.20
2023-02-06T18:57:18.459Z,6.13
2023-02-06T18:59:46.368Z,5.10
2023-02-06T19:02:14.450Z,6.00
2023-02-06T19:04:42.589Z,5.43
2023-02-06T19:07:11.807Z,6.03
2023-02-06T19:09:41.115Z,5.47
2023-02-06T19:12:09.346Z,5.47
2023-02-06T19:14:37.368Z,5.37
2023-02-06T19:17:05.639Z,5.50
2023-02-06T19:19:33.499Z,5.73
2023-02-06T19:22:01.552Z,5.90
2023-02-06T19:24:30.716Z,5.43
2023-02-06T19:27:01.614Z,5.63
2023-02-06T19:29:35.614Z,5.97
2023-02-06T19:32:04.672Z,5.40
2023-02-06T19:34:35.961Z,5.00
2023-02-06T19:37:04.751Z,5.77
2023-02-06T19:39:34.291Z,5.40
2023-02-06T19:42:06.417Z,4.87
2023-02-06T19:44:34.706Z,5.50
2023-02-06T19:47:02.595Z,6.47
2023-02-06T19:49:30.801Z,5.70
2023-02-06T19:51:58.710Z,5.70
2023-02-06T19:54:26.540Z,5.80
2023-02-06T19:56:54.746Z,5.33
2023-02-06T19:59:25.397Z,5.37
2023-02-06T20:01:54.109Z,5.50
2023-02-06T20:04:22.825Z,5.93
2023-02-06T20:06:51.282Z,4.80
2023-02-06T20:09:20.365Z,5.70
2023-02-06T20:11:49.170Z,5.83
2023-02-06T20:14:17.262Z,5.10
2023-02-06T20:16:47.057Z,6.00
2023-02-06T20:19:16.303Z,6.10
2023-02-06T20:21:46.124Z,5.47
2023-02-06T20:24:15.300Z,5.50
2023-02-06T20:26:43.609Z,5.63
2023-02-06T20:29:16.094Z,5.70
2023-02-06T20:31:43.969Z,5.30
2023-02-06T20:34:13.073Z,5.50
2023-02-06T20:36:41.752Z,5.70
2023-02-06T20:39:12.976Z,6.17
2023-02-06T20:41:40.802Z,5.83
2023-02-06T20:44:08.983Z,5.60
2023-02-06T20:46:36.965Z,6.00
2023-02-06T20:49:06.227Z,5.80
2023-02-06T20:51:35.299Z,5.70
2023-02-06T20:54:03.015Z,5.63
2023-02-06T20:56:30.984Z,5.60
2023-02-06T20:59:01.028Z,5.63
2023-02-06T21:01:29.746Z,5.53
2023-02-06T21:03:58.580Z,6.03
2023-02-06T21:06:26.845Z,5.53
2023-02-06T21:09:00.130Z,5.90
2023-02-06T21:11:29.616Z,5.20
2023-02-06T21:13:58.955Z,5.43
2023-02-06T21:16:27.018Z,5.50
2023-02-06T21:18:55.199Z,6.20
2023-02-06T21:21:23.222Z,5.50
2023-02-06T21:23:51.306Z,5.40
2023-02-06T21:26:20.801Z,5.53
2023-02-06T21:28:49.043Z,6.20
2023-02-06T21:31:17.861Z,5.70
2023-02-06T21:33:47.953Z,6.13
2023-02-06T21:36:16.001Z,6.03
2023-02-06T21:38:44.268Z,5.90
2023-02-06T21:41:14.340Z,5.70
2023-02-06T21:43:43.370Z,5.33
2023-02-06T21:46:11.429Z,5.30
2023-02-06T21:48:39.675Z,5.43
2023-02-06T21:51:10.612Z,5.83
2023-02-06T21:53:38.989Z,6.10
2023-02-06T21:56:07.541Z,5.43
2023-02-06T21:58:35.861Z,6.10
2023-02-06T22:01:08.766Z,5.70
2023-02-06T22:03:37.056Z,5.50
2023-02-06T22:06:08.851Z,6.00
2023-02-06T22:08:36.761Z,5.90
2023-02-06T22:11:12.651Z,6.00
2023-02-06T22:13:40.814Z,5.90
2023-02-06T22:16:11.071Z,5.77
2023-02-06T22:18:39.182Z,5.90
2023-02-06T22:21:08.186Z,5.90
2023-02-06T22:23:36.144Z,5.73
2023-02-06T22:26:04.932Z,5.73
2023-02-06T22:28:34.730Z,5.57
2023-02-06T22:31:06.761Z,5.90
2023-02-06T22:33:36.172Z,5.63
2023-02-06T22:36:05.613Z,6.37
2023-02-06T22:38:33.608Z,6.07
2023-02-06T22:41:02.056Z,5.37
2023-02-06T22:43:30.070Z,5.93
2023-02-06T22:45:58.107Z,5.60
2023-02-06T22:48:26.008Z,5.60
2023-02-06T22:50:55.571Z,5.80
2023-02-06T22:53:35.929Z,4.83
2023-02-06T22:56:23.026Z,5.87
2023-02-06T22:58:51.190Z,5.80
2023-02-06T23:01:19.887Z,6.00
2023-02-06T23:03:47.746Z,5.40
2023-02-06T23:06:16.847Z,5.70
2023-02-06T23:08:44.919Z,5.50
2023-02-06T23:11:13.313Z,5.43
2023-02-06T23:13:41.289Z,5.10
2023-02-06T23:16:09.470Z,5.60
2023-02-06T23:18:37.752Z,5.17
2023-02-06T23:21:07.544Z,5.57
2023-02-06T23:23:36.943Z,5.40
2023-02-06T23:26:05.010Z,4.90
2023-02-06T23:28:33.089Z,5.23
2023-02-06T23:31:01.036Z,6.77
2023-02-06T23:33:29.059Z,6.90
2023-02-06T23:35:57.291Z,6.90
2023-02-06T23:38:25.759Z,6.30
2023-02-06T23:41:06.021Z,7.40
2023-02-06T23:43:35.390Z,8.40
2023-02-06T23:46:03.618Z,8.43
2023-02-06T23:48:32.316Z,7.83
2023-02-06T23:51:01.500Z,7.23
2023-02-06T23:53:29.560Z,8.50
2023-02-06T23:55:59.755Z,8.70
2023-02-06T23:58:30.457Z,8.07
